createdAt,value
2023-04-29T00:01:39.857Z,100831.72
2023-04-29T00:04:07.459Z,100812.75
2023-04-29T00:06:34.974Z,100819.94
2023-04-29T00:09:02.323Z,100832.25
2023-04-29T00:11:29.731Z,100838.44
2023-04-29T00:13:57.066Z,100840.16
2023-04-29T00:16:24.442Z,100825.25
2023-04-29T00:18:51.864Z,100812.44
2023-04-29T00:21:19.438Z,100814.34
2023-04-29T00:23:47.012Z,100811.88
2023-04-29T00:26:14.351Z,100804.94
2023-04-29T00:28:46.253Z,100806.66
2023-04-29T00:31:14.839Z,100805.69
2023-04-29T00:33:42.636Z,100807.84
2023-04-29T00:36:10.171Z,100819.16
2023-04-29T00:38:37.757Z,100815.63
2023-04-29T00:41:05.198Z,100820.25
2023-04-29T00:43:32.671Z,100821.97
2023-04-29T00:46:00.013Z,100814.59
2023-04-29T00:48:27.603Z,100820.78
2023-04-29T00:50:54.958Z,100817.00
2023-04-29T00:53:23.326Z,100831.94
2023-04-29T00:55:51.843Z,100829.38
2023-04-29T00:58:20.112Z,100831.16
2023-04-29T01:00:48.087Z,100825.25
2023-04-29T01:03:19.567Z,100817.50
2023-04-29T01:05:58.068Z,100821.69
2023-04-29T01:08:35.678Z,100814.28
2023-04-29T01:11:11.061Z,100820.06
2023-04-29T01:14:04.954Z,100811.78
2023-04-29T01:16:51.818Z,100813.56
2023-04-29T01:20:00.579Z,100805.00
2023-04-29T01:22:27.991Z,100804.66
2023-04-29T01:24:55.369Z,100817.44
2023-04-29T01:27:31.833Z,100815.88
2023-04-29T01:30:34.481Z,100813.78
2023-04-29T01:33:17.863Z,100804.47
2023-04-29T01:36:14.018Z,100813.16
2023-04-29T01:38:58.161Z,100814.63
2023-04-29T01:41:43.178Z,100806.66
2023-04-29T01:44:18.662Z,100802.97
2023-04-29T01:46:55.038Z,100796.94
2023-04-29T01:49:28.523Z,100800.59
2023-04-29T01:51:56.417Z,100802.22
2023-04-29T01:54:24.105Z,100792.03
2023-04-29T01:56:52.244Z,100791.03
2023-04-29T01:59:27.451Z,100781.66
2023-04-29T02:02:15.087Z,100784.84
2023-04-29T02:04:52.175Z,100781.69
2023-04-29T02:07:19.714Z,100777.34
2023-04-29T02:09:48.250Z,100784.06
2023-04-29T02:12:15.659Z,100800.47
2023-04-29T02:14:43.028Z,100793.66
2023-04-29T02:17:10.480Z,100793.09
2023-04-29T02:19:37.941Z,100781.78
2023-04-29T02:22:05.565Z,100776.41
2023-04-29T02:24:32.929Z,100778.47
2023-04-29T02:27:00.351Z,100773.22
2023-04-29T02:29:31.015Z,100786.59
2023-04-29T02:31:59.283Z,100801.97
2023-04-29T02:34:26.797Z,100793.88
2023-04-29T02:36:57.037Z,100794.69
2023-04-29T02:39:24.852Z,100778.13
2023-04-29T02:41:56.344Z,100761.44
2023-04-29T02:44:24.556Z,100763.03
2023-04-29T02:46:51.914Z,100758.81
2023-04-29T02:49:19.316Z,100764.31
2023-04-29T02:51:46.865Z,100767.66
2023-04-29T02:54:14.312Z,100764.00
2023-04-29T02:56:41.740Z,100779.06
2023-04-29T02:59:09.749Z,100783.97
2023-04-29T03:01:39.959Z,100791.59
2023-04-29T03:04:07.755Z,100800.59
2023-04-29T03:06:35.777Z,100813.25
2023-04-29T03:09:03.194Z,100810.19
2023-04-29T03:11:30.688Z,100802.22
2023-04-29T03:14:00.113Z,100808.25
2023-04-29T03:16:28.781Z,100787.94
2023-04-29T03:18:56.152Z,100783.38
2023-04-29T03:21:26.341Z,100785.78
2023-04-29T03:23:55.475Z,100781.41
2023-04-29T03:26:29.029Z,100774.91
2023-04-29T03:28:58.549Z,100776.97
2023-04-29T03:31:27.532Z,100778.44
2023-04-29T03:33:55.010Z,100776.19
2023-04-29T03:36:23.528Z,100790.78
2023-04-29T03:39:06.312Z,100808.31
2023-04-29T03:41:34.038Z,100816.91
2023-04-29T03:44:01.481Z,100800.81
2023-04-29T03:46:30.345Z,100801.06
2023-04-29T03:48:58.138Z,100794.44
2023-04-29T03:51:26.377Z,100790.34
2023-04-29T03:54:01.759Z,100782.22
2023-04-29T03:56:29.304Z,100774.94
2023-04-29T03:58:56.610Z,100776.63
2023-04-29T04:01:26.564Z,100780.63
2023-04-29T04:03:54.297Z,100775.84
2023-04-29T04:06:22.146Z,100772.53
2023-04-29T04:08:49.956Z,100781.34
2023-04-29T04:11:21.186Z,100785.78
2023-04-29T04:13:53.649Z,100781.41
2023-04-29T04:16:21.612Z,100786.22
2023-04-29T04:18:49.227Z,100802.19
2023-04-29T04:21:16.803Z,100800.41
2023-04-29T04:23:48.420Z,100794.25
2023-04-29T04:26:21.124Z,100787.03
2023-04-29T04:28:54.509Z,100787.94
2023-04-29T04:31:30.098Z,100784.75
2023-04-29T04:33:59.796Z,100786.00
2023-04-29T04:36:28.519Z,100793.44
2023-04-29T04:38:56.587Z,100792.50
2023-04-29T04:41:24.267Z,100785.31
2023-04-29T04:43:53.370Z,100789.78
2023-04-29T04:46:33.458Z,100799.34
2023-04-29T04:49:09.768Z,100803.13
2023-04-29T04:51:45.830Z,100806.44
2023-04-29T04:54:13.786Z,100800.41
2023-04-29T04:56:44.001Z,100805.75
2023-04-29T04:59:11.482Z,100805.53
2023-04-29T05:01:41.077Z,100799.84
2023-04-29T05:04:08.560Z,100788.75
2023-04-29T05:06:36.352Z,100783.19
2023-04-29T05:09:03.855Z,100792.22
2023-04-29T05:11:32.320Z,100806.34
2023-04-29T05:14:09.011Z,100795.72
2023-04-29T05:16:36.681Z,100801.44
2023-04-29T05:19:04.180Z,100805.19
2023-04-29T05:21:35.844Z,100805.44
2023-04-29T05:24:04.096Z,100807.13
2023-04-29T05:26:31.454Z,100804.88
2023-04-29T05:29:01.530Z,100812.13
2023-04-29T05:31:32.488Z,100806.44
2023-04-29T05:34:03.270Z,100812.03
2023-04-29T05:36:31.858Z,100812.03
2023-04-29T05:38:59.326Z,100822.84
2023-04-29T05:41:26.895Z,100811.78
2023-04-29T05:44:03.329Z,100813.63
2023-04-29T05:46:32.552Z,100813.03
2023-04-29T05:49:00.037Z,100811.91
2023-04-29T05:51:28.358Z,100820.69
2023-04-29T05:53:55.925Z,100820.22
2023-04-29T05:56:23.516Z,100823.78
2023-04-29T05:58:50.987Z,100822.13
2023-04-29T06:01:18.738Z,100818.97
2023-04-29T06:03:46.887Z,100827.84
2023-04-29T06:06:54.189Z,100838.38
2023-04-29T06:09:33.337Z,100841.00
2023-04-29T06:12:03.568Z,100837.09
2023-04-29T06:14:31.050Z,100845.09
2023-04-29T06:16:59.333Z,100848.06
2023-04-29T06:19:27.075Z,100849.28
2023-04-29T06:21:54.455Z,100844.84
2023-04-29T06:24:22.014Z,100847.88
2023-04-29T06:26:49.395Z,100852.09
2023-04-29T06:29:17.045Z,100851.03
2023-04-29T06:31:47.517Z,100862.25
2023-04-29T06:34:15.170Z,100859.16
2023-04-29T06:37:05.834Z,100846.66
2023-04-29T06:40:08.882Z,100835.69
2023-04-29T06:43:08.744Z,100839.34
2023-04-29T06:45:41.731Z,100847.44
2023-04-29T06:48:18.493Z,100852.09
2023-04-29T06:50:55.836Z,100853.19
2023-04-29T06:53:24.532Z,100851.91
2023-04-29T06:55:51.928Z,100847.03
2023-04-29T06:58:23.388Z,100851.66
2023-04-29T07:00:51.605Z,100841.34
2023-04-29T07:03:19.550Z,100841.31
2023-04-29T07:05:47.088Z,100834.84
2023-04-29T07:08:14.736Z,100835.00
2023-04-29T07:10:42.108Z,100845.91
2023-04-29T07:13:09.650Z,100842.63
2023-04-29T07:15:37.565Z,100840.59
2023-04-29T07:18:05.608Z,100838.09
2023-04-29T07:20:33.125Z,100832.34
2023-04-29T07:23:00.509Z,100836.41
2023-04-29T07:25:29.416Z,100830.72
2023-04-29T07:27:57.159Z,100829.41
2023-04-29T07:30:25.964Z,100831.97
2023-04-29T07:32:53.375Z,100834.63
2023-04-29T07:35:20.963Z,100830.94
2023-04-29T07:37:48.363Z,100838.06
2023-04-29T07:40:15.759Z,100835.81
2023-04-29T07:42:43.995Z,100838.00
2023-04-29T07:45:15.081Z,100838.63
2023-04-29T07:47:42.500Z,100838.94
2023-04-29T07:50:10.496Z,100844.53
2023-04-29T07:52:40.875Z,100847.19
2023-04-29T07:55:09.679Z,100860.84
2023-04-29T07:57:37.123Z,100869.31
2023-04-29T08:00:05.153Z,100869.03
2023-04-29T08:02:42.779Z,100863.91
2023-04-29T08:05:15.976Z,100866.28
2023-04-29T08:07:43.506Z,100871.47
2023-04-29T08:10:11.268Z,100877.19
2023-04-29T08:12:38.796Z,100877.56
2023-04-29T08:15:09.808Z,100872.06
2023-04-29T08:17:37.544Z,100877.66
2023-04-29T08:20:05.529Z,100884.81
2023-04-29T08:22:32.890Z,100887.06
2023-04-29T08:25:00.470Z,100882.78
2023-04-29T08:27:27.848Z,100887.56
2023-04-29T08:29:56.164Z,100886.25
2023-04-29T08:32:23.542Z,100886.03
2023-04-29T08:34:51.441Z,100896.25
2023-04-29T08:37:20.685Z,100891.63
2023-04-29T08:39:49.015Z,100894.50
2023-04-29T08:42:21.157Z,100893.06
2023-04-29T08:44:49.662Z,100886.25
2023-04-29T08:47:17.862Z,100883.78
2023-04-29T08:49:45.398Z,100882.31
2023-04-29T08:52:15.838Z,100889.75
2023-04-29T08:54:43.201Z,100884.78
2023-04-29T08:57:12.235Z,100881.34
2023-04-29T08:59:39.659Z,100882.09
2023-04-29T09:02:11.866Z,100878.88
2023-04-29T09:04:51.967Z,100880.28
2023-04-29T09:07:19.628Z,100875.53
2023-04-29T09:09:49.344Z,100882.56
2023-04-29T09:12:16.686Z,100872.16
2023-04-29T09:14:44.455Z,100867.84
2023-04-29T09:17:11.802Z,100876.59
2023-04-29T09:19:39.292Z,100875.78
2023-04-29T09:22:09.336Z,100873.66
2023-04-29T09:24:38.063Z,100874.28
2023-04-29T09:27:05.617Z,100870.19
2023-04-29T09:29:34.600Z,100858.09
2023-04-29T09:32:19.549Z,100862.56
2023-04-29T09:34:47.016Z,100860.94
2023-04-29T09:37:28.115Z,100862.44
2023-04-29T09:39:55.583Z,100863.28
2023-04-29T09:42:22.977Z,100862.53
2023-04-29T09:44:50.372Z,100858.03
2023-04-29T09:47:17.911Z,100847.66
2023-04-29T09:49:46.116Z,100848.53
2023-04-29T09:52:16.389Z,100854.50
2023-04-29T09:54:44.835Z,100850.84
2023-04-29T09:57:15.727Z,100846.50
2023-04-29T09:59:43.969Z,100843.88
2023-04-29T10:02:17.733Z,100831.03
2023-04-29T10:04:46.956Z,100832.72
2023-04-29T10:07:16.808Z,100842.59
2023-04-29T10:09:48.209Z,100833.78
2023-04-29T10:12:20.701Z,100842.69
2023-04-29T10:14:55.677Z,100837.00
2023-04-29T10:17:45.123Z,100833.22
2023-04-29T10:20:26.513Z,100828.59
2023-04-29T10:22:56.624Z,100824.28
2023-04-29T10:25:25.269Z,100823.09
2023-04-29T10:27:53.767Z,100823.50
2023-04-29T10:30:22.593Z,100823.53
2023-04-29T10:32:52.491Z,100821.91
2023-04-29T10:35:23.444Z,100818.78
2023-04-29T10:37:53.135Z,100819.56
2023-04-29T10:40:26.701Z,100810.72
2023-04-29T10:42:55.193Z,100803.19
2023-04-29T10:45:35.105Z,100802.91
2023-04-29T10:48:06.161Z,100794.22
2023-04-29T10:50:49.764Z,100789.38
2023-04-29T10:53:20.615Z,100780.56
2023-04-29T10:55:57.649Z,100782.56
2023-04-29T10:58:45.455Z,100778.94
2023-04-29T11:01:17.408Z,100771.81
2023-04-29T11:04:01.692Z,100773.53
2023-04-29T11:06:39.758Z,100777.63
2023-04-29T11:09:16.128Z,100771.44
2023-04-29T11:11:53.988Z,100779.44
2023-04-29T11:14:27.025Z,100769.09
2023-04-29T11:17:01.410Z,100772.84
2023-04-29T11:19:36.738Z,100766.53
2023-04-29T11:22:14.327Z,100771.66
2023-04-29T11:25:04.636Z,100776.78
2023-04-29T11:27:36.654Z,100773.16
2023-04-29T11:30:06.559Z,100771.97
2023-04-29T11:32:42.999Z,100765.94
2023-04-29T11:35:18.395Z,100770.59
2023-04-29T11:37:47.182Z,100767.41
2023-04-29T11:40:15.221Z,100756.44
2023-04-29T11:42:46.698Z,100763.03
2023-04-29T11:45:15.285Z,100758.34
2023-04-29T11:47:45.734Z,100767.03
2023-04-29T11:50:16.747Z,100765.00
2023-04-29T11:52:47.038Z,100762.38
2023-04-29T11:55:14.804Z,100761.19
2023-04-29T11:57:42.368Z,100765.00
2023-04-29T12:00:14.193Z,100762.34
2023-04-29T12:02:45.390Z,100758.88
2023-04-29T12:05:13.703Z,100760.44
2023-04-29T12:07:41.465Z,100760.84
2023-04-29T12:10:10.875Z,100767.84
2023-04-29T12:12:41.055Z,100760.34
2023-04-29T12:15:10.209Z,100761.72
2023-04-29T12:17:38.808Z,100761.16
2023-04-29T12:20:09.450Z,100751.50
2023-04-29T12:22:36.836Z,100754.63
2023-04-29T12:25:07.924Z,100747.44
2023-04-29T12:27:36.881Z,100749.94
2023-04-29T12:30:09.753Z,100744.84
2023-04-29T12:32:38.636Z,100753.25
2023-04-29T12:35:07.393Z,100761.13
2023-04-29T12:37:35.465Z,100761.13
2023-04-29T12:40:03.714Z,100744.66
2023-04-29T12:42:36.637Z,100743.38
2023-04-29T12:45:06.670Z,100744.97
2023-04-29T12:47:37.499Z,100741.00
2023-04-29T12:50:07.259Z,100727.50
2023-04-29T12:52:36.639Z,100726.81
2023-04-29T12:55:05.032Z,100718.78
2023-04-29T12:57:32.421Z,100718.53
2023-04-29T12:59:59.876Z,100711.44
2023-04-29T13:02:28.363Z,100709.31
2023-04-29T13:04:56.255Z,100709.44
2023-04-29T13:07:23.901Z,100705.72
2023-04-29T13:09:51.258Z,100697.00
2023-04-29T13:12:18.587Z,100697.50
2023-04-29T13:14:46.218Z,100691.91
2023-04-29T13:17:13.986Z,100692.03
2023-04-29T13:19:51.059Z,100686.91
2023-04-29T13:22:20.183Z,100690.50
2023-04-29T13:24:47.767Z,100688.91
2023-04-29T13:27:15.101Z,100692.47
2023-04-29T13:29:42.609Z,100688.53
2023-04-29T13:32:12.813Z,100686.53
2023-04-29T13:34:43.349Z,100686.47
2023-04-29T13:37:11.743Z,100686.09
2023-04-29T13:39:39.764Z,100680.19
2023-04-29T13:42:08.984Z,100680.97
2023-04-29T13:44:49.787Z,100666.91
2023-04-29T13:47:25.522Z,100674.09
2023-04-29T13:50:22.573Z,100666.78
2023-04-29T14:00:37.085Z,100663.50
2023-04-29T14:03:03.313Z,100650.06
2023-04-29T14:05:31.161Z,100661.56
2023-04-29T14:07:58.587Z,100659.25
2023-04-29T14:10:26.126Z,100662.38
2023-04-29T14:12:53.452Z,100653.28
2023-04-29T14:15:20.954Z,100663.25
2023-04-29T14:17:50.235Z,100653.25
2023-04-29T14:20:20.812Z,100662.78
2023-04-29T14:22:48.088Z,100664.38
2023-04-29T14:25:15.543Z,100656.88
2023-04-29T14:27:42.878Z,100658.81
2023-04-29T14:30:10.813Z,100659.63
2023-04-29T14:32:38.164Z,100658.47
2023-04-29T14:35:06.377Z,100651.28
2023-04-29T14:37:33.766Z,100651.69
2023-04-29T14:40:01.221Z,100652.94
2023-04-29T14:42:28.535Z,100654.94
2023-04-29T14:44:58.788Z,100651.38
2023-04-29T14:47:26.338Z,100657.69
2023-04-29T14:49:53.729Z,100660.91
2023-04-29T14:52:24.093Z,100658.91
2023-04-29T14:54:51.599Z,100661.72
2023-04-29T14:57:19.024Z,100660.88
2023-04-29T14:59:46.928Z,100663.28
2023-04-29T15:02:14.305Z,100656.53
2023-04-29T15:04:45.753Z,100650.63
2023-04-29T15:07:13.871Z,100658.13
2023-04-29T15:09:41.994Z,100655.34
2023-04-29T15:12:09.656Z,100657.31
2023-04-29T15:14:37.705Z,100656.09
2023-04-29T15:17:05.119Z,100652.13
2023-04-29T15:19:32.533Z,100658.84
2023-04-29T15:21:59.846Z,100657.69
2023-04-29T15:24:27.252Z,100638.31
2023-04-29T15:26:54.636Z,100646.19
2023-04-29T15:29:22.190Z,100648.19
2023-04-29T15:31:49.702Z,100649.38
2023-04-29T15:34:17.109Z,100644.22
2023-04-29T15:36:44.489Z,100640.69
2023-04-29T15:39:12.267Z,100642.25
2023-04-29T15:41:39.638Z,100644.66
2023-04-29T15:44:07.073Z,100646.25
2023-04-29T15:46:34.412Z,100640.31
2023-04-29T15:49:02.479Z,100639.50
2023-04-29T15:51:29.827Z,100632.00
2023-04-29T15:53:57.251Z,100631.59
2023-04-29T15:56:25.091Z,100628.06
2023-04-29T15:58:53.076Z,100633.16
2023-04-29T16:01:20.531Z,100632.38
2023-04-29T16:03:48.102Z,100631.59
2023-04-29T16:06:16.854Z,100642.66
2023-04-29T16:08:44.292Z,100637.13
2023-04-29T16:11:12.082Z,100630.41
2023-04-29T16:13:39.448Z,100635.13
2023-04-29T16:16:07.059Z,100635.53
2023-04-29T16:18:34.391Z,100641.44
2023-04-29T16:21:02.805Z,100640.59
2023-04-29T16:23:30.259Z,100642.16
2023-04-29T16:25:57.707Z,100634.72
2023-04-29T16:28:25.094Z,100630.75
2023-04-29T16:30:52.363Z,100637.50
2023-04-29T16:33:19.852Z,100630.00
2023-04-29T16:35:47.680Z,100642.94
2023-04-29T16:38:15.125Z,100642.84
2023-04-29T16:40:42.456Z,100645.59
2023-04-29T16:43:12.252Z,100636.13
2023-04-29T16:45:39.797Z,100638.09
2023-04-29T16:48:08.311Z,100639.31
2023-04-29T16:50:37.616Z,100628.66
2023-04-29T16:53:04.999Z,100640.09
2023-04-29T16:55:32.493Z,100637.69
2023-04-29T16:57:59.909Z,100635.72
2023-04-29T17:00:30.429Z,100629.06
2023-04-29T17:02:58.580Z,100627.44
2023-04-29T17:05:27.149Z,100630.56
2023-04-29T17:07:54.978Z,100634.09
2023-04-29T17:10:22.402Z,100632.13
2023-04-29T17:12:49.812Z,100630.94
2023-04-29T17:15:17.242Z,100632.09
2023-04-29T17:17:46.703Z,100632.53
2023-04-29T17:20:14.200Z,100634.50
2023-04-29T17:22:44.864Z,100638.13
2023-04-29T17:25:13.788Z,100638.44
2023-04-29T17:27:44.429Z,100635.25
2023-04-29T17:30:14.325Z,100632.94
2023-04-29T17:32:44.274Z,100631.41
2023-04-29T17:35:11.787Z,100642.75
2023-04-29T17:37:39.194Z,100639.53
2023-04-29T17:40:09.917Z,100637.13
2023-04-29T17:42:37.436Z,100644.66
2023-04-29T17:45:05.520Z,100641.44
2023-04-29T17:47:33.819Z,100640.13
2023-04-29T17:50:02.630Z,100648.41
2023-04-29T17:52:32.723Z,100654.97
2023-04-29T17:55:00.131Z,100651.84
2023-04-29T17:57:28.729Z,100652.25
2023-04-29T17:59:56.827Z,100650.59
2023-04-29T18:02:27.635Z,100646.53
2023-04-29T18:04:55.858Z,100653.13
2023-04-29T18:07:23.260Z,100654.19
2023-04-29T18:09:51.085Z,100649.75
2023-04-29T18:12:18.576Z,100645.41
2023-04-29T18:14:48.792Z,100649.63
2023-04-29T18:17:16.266Z,100650.34
2023-04-29T18:19:46.687Z,100649.91
2023-04-29T18:22:14.272Z,100654.97
2023-04-29T18:24:41.593Z,100656.38
2023-04-29T18:27:09.026Z,100661.81
2023-04-29T18:29:39.123Z,100660.97
2023-04-29T18:32:07.973Z,100660.97
2023-04-29T18:34:35.807Z,100666.34
2023-04-29T18:37:03.163Z,100666.75
2023-04-29T18:39:30.630Z,100666.31
2023-04-29T18:41:58.144Z,100667.06
2023-04-29T18:44:26.331Z,100667.81
2023-04-29T18:46:55.283Z,100671.28
2023-04-29T18:49:22.652Z,100667.72
2023-04-29T18:51:52.879Z,100670.41
2023-04-29T18:54:20.249Z,100673.56
2023-04-29T18:56:50.655Z,100683.66
2023-04-29T18:59:19.830Z,100681.28
2023-04-29T19:01:48.798Z,100687.16
2023-04-29T19:04:19.761Z,100691.03
2023-04-29T19:06:47.219Z,100696.44
2023-04-29T19:09:14.620Z,100693.66
2023-04-29T19:11:42.044Z,100697.50
2023-04-29T19:14:09.421Z,100704.19
2023-04-29T19:16:37.464Z,100706.88
2023-04-29T19:19:05.343Z,100704.56
2023-04-29T19:21:33.405Z,100714.41
2023-04-29T19:24:00.873Z,100713.00
2023-04-29T19:26:28.969Z,100713.78
2023-04-29T19:28:56.314Z,100713.00
2023-04-29T19:31:23.750Z,100716.06
2023-04-29T19:33:52.415Z,100725.03
2023-04-29T19:36:22.438Z,100723.28
2023-04-29T19:38:49.936Z,100723.84
2023-04-29T19:41:17.945Z,100731.31
2023-04-29T19:43:45.251Z,100736.31
2023-04-29T19:46:13.387Z,100746.03
2023-04-29T19:48:41.087Z,100747.91
2023-04-29T19:51:09.782Z,100749.03
2023-04-29T19:53:37.336Z,100755.84
2023-04-29T19:56:05.326Z,100756.13
2023-04-29T19:58:33.086Z,100751.41
2023-04-29T20:01:00.637Z,100759.53
2023-04-29T20:03:28.284Z,100756.38
2023-04-29T20:05:55.696Z,100763.41
2023-04-29T20:08:23.107Z,100762.56
2023-04-29T20:10:50.469Z,100764.06
2023-04-29T20:13:17.804Z,100757.34
2023-04-29T20:15:45.223Z,100768.97
2023-04-29T20:18:13.750Z,100763.69
2023-04-29T20:20:41.160Z,100770.34
2023-04-29T20:23:08.473Z,100776.34
2023-04-29T20:25:35.910Z,100769.75
2023-04-29T20:28:03.290Z,100778.41
2023-04-29T20:30:30.862Z,100774.56
2023-04-29T20:32:58.204Z,100781.53
2023-04-29T20:35:27.031Z,100789.22
2023-04-29T20:37:54.617Z,100785.09
2023-04-29T20:40:22.365Z,100796.25
2023-04-29T20:42:49.782Z,100790.00
2023-04-29T20:45:18.382Z,100803.19
2023-04-29T20:47:45.906Z,100802.47
2023-04-29T20:50:13.675Z,100792.97
2023-04-29T20:52:41.630Z,100811.50
2023-04-29T20:55:09.406Z,100808.38
2023-04-29T20:57:37.384Z,100804.81
2023-04-29T21:00:05.670Z,100804.22
2023-04-29T21:02:33.831Z,100807.38
2023-04-29T21:05:01.386Z,100805.69
2023-04-29T21:07:29.504Z,100811.28
2023-04-29T21:09:58.835Z,100818.84
2023-04-29T21:12:26.325Z,100815.22
2023-04-29T21:14:53.931Z,100821.13
2023-04-29T21:17:21.329Z,100817.16
2023-04-29T21:19:48.816Z,100820.59
2023-04-29T21:22:16.106Z,100815.09
2023-04-29T21:24:43.485Z,100815.56
2023-04-29T21:27:10.865Z,100819.06
2023-04-29T21:29:41.095Z,100819.06
2023-04-29T21:32:08.879Z,100815.81
2023-04-29T21:34:36.248Z,100826.28
2023-04-29T21:37:04.681Z,100834.78
2023-04-29T21:39:32.326Z,100836.19
2023-04-29T21:42:02.665Z,100833.72
2023-04-29T21:44:30.556Z,100827.44
2023-04-29T21:46:59.842Z,100836.84
2023-04-29T21:49:30.708Z,100831.19
2023-04-29T21:51:58.035Z,100837.44
2023-04-29T21:54:25.429Z,100836.28
2023-04-29T21:56:52.760Z,100846.84
2023-04-29T21:59:20.170Z,100852.50
2023-04-29T22:01:47.641Z,100839.69
2023-04-29T22:04:16.740Z,100847.81
2023-04-29T22:06:44.196Z,100846.75
2023-04-29T22:09:11.608Z,100850.81
2023-04-29T22:11:39.180Z,100859.25
2023-04-29T22:14:06.696Z,100855.59
2023-04-29T22:16:35.926Z,100859.56
2023-04-29T22:19:04.218Z,100862.44
2023-04-29T22:21:31.756Z,100863.50
2023-04-29T22:23:59.203Z,100858.66
2023-04-29T22:26:26.862Z,100864.94
2023-04-29T22:28:54.988Z,100867.59
2023-04-29T22:31:22.367Z,100872.97
2023-04-29T22:33:49.755Z,100874.56
2023-04-29T22:36:17.119Z,100891.94
2023-04-29T22:38:47.582Z,100887.78
2023-04-29T22:41:15.045Z,100896.28
2023-04-29T22:43:42.405Z,100886.97
2023-04-29T22:46:09.787Z,100876.16
2023-04-29T22:48:37.229Z,100876.25
2023-04-29T22:51:04.749Z,100872.28
2023-04-29T22:53:35.036Z,100874.16
2023-04-29T22:56:03.182Z,100873.78
2023-04-29T22:58:31.598Z,100869.63
2023-04-29T23:01:00.420Z,100870.06
2023-04-29T23:03:28.059Z,100863.59
2023-04-29T23:05:59.448Z,100865.53
2023-04-29T23:08:27.582Z,100869.88
2023-04-29T23:10:55.010Z,100872.88
2023-04-29T23:13:22.428Z,100865.66
2023-04-29T23:15:49.806Z,100869.59
2023-04-29T23:18:17.183Z,100876.50
2023-04-29T23:20:47.955Z,100861.16
2023-04-29T23:23:15.454Z,100879.47
2023-04-29T23:25:45.219Z,100873.88
2023-04-29T23:28:12.674Z,100876.16
2023-04-29T23:30:40.227Z,100879.28
2023-04-29T23:33:07.903Z,100874.59
2023-04-29T23:35:35.297Z,100879.19
2023-04-29T23:38:02.699Z,100878.69
2023-04-29T23:40:31.169Z,100874.13
2023-04-29T23:42:59.191Z,100876.63
2023-04-29T23:45:26.568Z,100867.31
2023-04-29T23:47:54.038Z,100874.94
2023-04-29T23:50:21.378Z,100859.78
2023-04-29T23:52:48.768Z,100862.81
2023-04-29T23:55:16.221Z,100854.31
2023-04-29T23:57:43.659Z,100859.47
